METAR AND TAF INFORMATION
METAR FOR TBPB
ADDS - METARS form results

(1949 UTC 22 January 2020)
Data provider http://aviationweather.gov/metar/data/
 
METAR text: TBPB 221923Z 10017KT 4000 2000SW SHRA RA VCSH BKN012 BKN030 24/22 Q1011 NOSIG
Conditions at: TBPB (GRANTLEY ADAMS , BB) observed 1923 UTC 22 January 2020
Temperature: 24.0°C (75°F)
Dewpoint: 22.0°C (72°F) [RH = 89%]
Pressure (altimeter): 29.85 inches Hg (1011.0 mb)
Winds: from the E (100 degrees) at 20 MPH (17 knots; 8.7 m/s)
Visibility: 2.49 miles (4.01 km)
Ceiling: 1200 feet AGL
Clouds: broken clouds at 1200 feet AGL
broken clouds at 3000 feet AGL
Weather: VCSH SHRA RA  (showers in vicinity, rain showers, moderate rain)

METAR text: TBPB 221900Z 10014KT 9999 3000NE -RA VCSH BKN012 BKN030 24/23 Q1011 RESHRA NOSIG
Conditions at: TBPB (GRANTLEY ADAMS , BB) observed 1900 UTC 22 January 2020
Temperature: 24.0°C (75°F)
Dewpoint: 23.0°C (73°F) [RH = 94%]
Pressure (altimeter): 29.85 inches Hg (1011.0 mb)
Winds: from the E (100 degrees) at 16 MPH (14 knots; 7.2 m/s)
Visibility: 6 or more miles (10+ km)
Ceiling: 1200 feet AGL
Clouds: broken clouds at 1200 feet AGL
broken clouds at 3000 feet AGL
Weather: VCSH -RA  (showers in vicinity, light rain)

Forecast for: TBPB (GRANTLEY ADAMS , BB)
Text: TAF TBPB 221700Z 2218/2318 11014KT 9999 SCT014 SCT034
Forecast period: 1800 UTC 22 January 2020 to 1800 UTC 23 January 2020
Forecast type: FROM: standard forecast or significant change
Winds: from the ESE (110 degrees) at 16 MPH (14 knots; 7.2 m/s)
Visibility: 6 or more miles 10+ km)
Ceiling: at least 12,000 feet AGL
Clouds: scattered clouds at 1400 feet AGL
scattered clouds at 3400 feet AGL
Weather: no significant weather forecast for this period
Text: TEMPO 2218/2309 5000 SHRA RA BKN015 OVC034
Forecast period: 1800 UTC 22 January 2020 to 0900 UTC 23 January 2020
Forecast type: TEMPORARY: The following changes expected for less than half the time period
Visibility: 3 miles (5 km)
Ceiling: 1500 feet AGL
Clouds: broken clouds at 1500 feet AGL
overcast cloud deck at 3400 feet AGL
Weather: SHRA RA  (rain showers, moderate rain)

 AIRPORT MAP

 RUNWAY INFORMATION
Runway 09 Runway length 11000 ft Runway width 150 ft
Runway elevation 169 ft Runway displaced threshold 0 ft Runway heading 76
Runway 27 Runway length 11000 ft Runway width 150 ft
Runway elevation 160 ft Runway displaced threshold 0 ft Runway heading 256

 AIRPORT FREQUENCIES
Type APP Name ADAMS APP Frequency 129.35 MHZ
Type ARR Name ADAMS ARR Frequency 128.85 MHZ
Type ATIS Name ATIS Frequency 132.725 MHZ
Type DEP Name ADAMS DEP Frequency 128.85 MHZ
Type GND Name ADAMS GND Frequency 121.9 MHZ
Type TWR Name ADAMS TWR Frequency 118.7 MHZ

 AIRPORT NEAR NAVIGATION AIDS
Type VOR-DME Name Adams Frequency 112700 KHZ
Type NDB Name Adams Frequency 345 KHZ